<?xml version='1.0' encoding='UTF-8'?><gpx version="1.1" creator="JPX - https://github.com/jenetics/jpx" xmlns="http://www.topografix.com/GPX/1/1"><trk><trkseg><trkpt lat="45.517353" lon="10.4140088"><ele>197.0</ele><time>2026-03-29T12:28:46.661Z</time></trkpt><trkpt lat="45.5174189" lon="10.4139346"><ele>197.0</ele><time>2026-03-29T12:28:50.654Z</time></trkpt><trkpt lat="45.517483" lon="10.4139532"><ele>197.0</ele><time>2026-03-29T12:28:52.659Z</time></trkpt><trkpt lat="45.5175464" lon="10.4139364"><ele>197.0</ele><time>2026-03-29T12:28:56.67Z</time></trkpt><trkpt lat="45.5175499" lon="10.4138386"><ele>197.0</ele><time>2026-03-29T12:29:02.662Z</time></trkpt><trkpt lat="45.5175487" lon="10.4137405"><ele>197.0</ele><time>2026-03-29T12:29:06.667Z</time></trkpt><trkpt lat="45.517489" lon="10.4136788"><ele>197.0</ele><time>2026-03-29T12:29:09.674Z</time></trkpt><trkpt lat="45.5174159" lon="10.4136782"><ele>197.00000000000003</ele><time>2026-03-29T12:29:11.674Z</time></trkpt><trkpt lat="45.5173126" lon="10.4136557"><ele>197.0</ele><time>2026-03-29T12:29:14.668Z</time></trkpt><trkpt lat="45.5172404" lon="10.413664"><ele>197.0</ele><time>2026-03-29T12:29:17.663Z</time></trkpt><trkpt lat="45.5172098" lon="10.4137457"><ele>197.0</ele><time>2026-03-29T12:29:19.661Z</time></trkpt><trkpt lat="45.5172029" lon="10.4138393"><ele>197.00000000000003</ele><time>2026-03-29T12:29:21.659Z</time></trkpt><trkpt lat="45.5172115" lon="10.4139556"><ele>197.0</ele><time>2026-03-29T12:29:23.65Z</time></trkpt><trkpt lat="45.5172233" lon="10.414054"><ele>197.00000000000003</ele><time>2026-03-29T12:29:24.635Z</time></trkpt><trkpt lat="45.5172349" lon="10.4141589"><ele>197.0</ele><time>2026-03-29T12:29:25.637Z</time></trkpt><trkpt lat="45.5172423" lon="10.4142719"><ele>197.0</ele><time>2026-03-29T12:29:26.648Z</time></trkpt><trkpt lat="45.517254" lon="10.4143774"><ele>197.0</ele><time>2026-03-29T12:29:27.654Z</time></trkpt><trkpt lat="45.5172639" lon="10.4145071"><ele>197.00000000000003</ele><time>2026-03-29T12:29:29.646Z</time></trkpt><trkpt lat="45.5172666" lon="10.4145971"><ele>197.0</ele><time>2026-03-29T12:29:31.654Z</time></trkpt><trkpt lat="45.5172787" lon="10.4147286"><ele>196.39999999999998</ele><time>2026-03-29T12:29:34.651Z</time></trkpt><trkpt lat="45.517347" lon="10.4148595"><ele>195.79999999999998</ele><time>2026-03-29T12:29:36.634Z</time></trkpt><trkpt lat="45.5173855" lon="10.4149507"><ele>195.2</ele><time>2026-03-29T12:29:37.632Z</time></trkpt><trkpt lat="45.5174231" lon="10.4150595"><ele>194.6</ele><time>2026-03-29T12:29:38.628Z</time></trkpt><trkpt lat="45.5174675" lon="10.4151845"><ele>194.0</ele><time>2026-03-29T12:29:39.652Z</time></trkpt><trkpt lat="45.5175223" lon="10.4153021"><ele>194.0</ele><time>2026-03-29T12:29:40.641Z</time></trkpt><trkpt lat="45.517593" lon="10.4154117"><ele>194.0</ele><time>2026-03-29T12:29:41.634Z</time></trkpt><trkpt lat="45.5176705" lon="10.4155103"><ele>194.0</ele><time>2026-03-29T12:29:42.659Z</time></trkpt><trkpt lat="45.5177532" lon="10.4155911"><ele>194.0</ele><time>2026-03-29T12:29:43.654Z</time></trkpt><trkpt lat="45.5178474" lon="10.4156583"><ele>194.0</ele><time>2026-03-29T12:29:44.677Z</time></trkpt><trkpt lat="45.5179472" lon="10.4157217"><ele>193.79999999999998</ele><time>2026-03-29T12:29:45.652Z</time></trkpt><trkpt lat="45.5180442" lon="10.415793"><ele>193.6</ele><time>2026-03-29T12:29:46.652Z</time></trkpt><trkpt lat="45.5181378" lon="10.4158646"><ele>193.4</ele><time>2026-03-29T12:29:47.648Z</time></trkpt><trkpt lat="45.5182274" lon="10.4159416"><ele>193.2</ele><time>2026-03-29T12:29:48.65Z</time></trkpt><trkpt lat="45.518308" lon="10.4160375"><ele>193.0</ele><time>2026-03-29T12:29:49.652Z</time></trkpt><trkpt lat="45.518387" lon="10.4161406"><ele>193.0</ele><time>2026-03-29T12:29:50.648Z</time></trkpt><trkpt lat="45.5184647" lon="10.4162657"><ele>193.0</ele><time>2026-03-29T12:29:51.657Z</time></trkpt><trkpt lat="45.5185426" lon="10.4164074"><ele>193.0</ele><time>2026-03-29T12:29:52.651Z</time></trkpt><trkpt lat="45.5186288" lon="10.4165516"><ele>193.0</ele><time>2026-03-29T12:29:53.666Z</time></trkpt><trkpt lat="45.5187164" lon="10.4166917"><ele>193.25</ele><time>2026-03-29T12:29:54.653Z</time></trkpt><trkpt lat="45.5188015" lon="10.416826"><ele>193.5</ele><time>2026-03-29T12:29:55.651Z</time></trkpt><trkpt lat="45.5188911" lon="10.4169705"><ele>193.75</ele><time>2026-03-29T12:29:56.649Z</time></trkpt><trkpt lat="45.518981" lon="10.4171083"><ele>194.0</ele><time>2026-03-29T12:29:57.654Z</time></trkpt><trkpt lat="45.5190619" lon="10.4172475"><ele>194.39999999999998</ele><time>2026-03-29T12:29:58.652Z</time></trkpt><trkpt lat="45.5191377" lon="10.4173804"><ele>194.8</ele><time>2026-03-29T12:29:59.669Z</time></trkpt><trkpt lat="45.5192036" lon="10.4174995"><ele>195.2</ele><time>2026-03-29T12:30:00.657Z</time></trkpt><trkpt lat="45.5192659" lon="10.4176077"><ele>195.60000000000002</ele><time>2026-03-29T12:30:01.653Z</time></trkpt><trkpt lat="45.5193319" lon="10.417699"><ele>196.0</ele><time>2026-03-29T12:30:02.66Z</time></trkpt><trkpt lat="45.5194045" lon="10.4177783"><ele>196.0</ele><time>2026-03-29T12:30:03.67Z</time></trkpt><trkpt lat="45.5194868" lon="10.4178483"><ele>196.0</ele><time>2026-03-29T12:30:04.662Z</time></trkpt><trkpt lat="45.5195788" lon="10.4179295"><ele>196.0</ele><time>2026-03-29T12:30:05.672Z</time></trkpt><trkpt lat="45.5196832" lon="10.4180136"><ele>196.0</ele><time>2026-03-29T12:30:06.66Z</time></trkpt><trkpt lat="45.5197766" lon="10.4180977"><ele>196.0</ele><time>2026-03-29T12:30:07.653Z</time></trkpt><trkpt lat="45.5198671" lon="10.4181769"><ele>196.8</ele><time>2026-03-29T12:30:08.657Z</time></trkpt><trkpt lat="45.5199579" lon="10.4182558"><ele>197.60000000000002</ele><time>2026-03-29T12:30:09.651Z</time></trkpt><trkpt lat="45.5200389" lon="10.4183621"><ele>198.4</ele><time>2026-03-29T12:30:10.652Z</time></trkpt><trkpt lat="45.5201049" lon="10.418465"><ele>199.2</ele><time>2026-03-29T12:30:11.655Z</time></trkpt><trkpt lat="45.5201567" lon="10.4185615"><ele>200.0</ele><time>2026-03-29T12:30:12.673Z</time></trkpt><trkpt lat="45.5202143" lon="10.4186624"><ele>200.0</ele><time>2026-03-29T12:30:13.655Z</time></trkpt><trkpt lat="45.520251" lon="10.4187707"><ele>200.0</ele><time>2026-03-29T12:30:14.643Z</time></trkpt><trkpt lat="45.5202768" lon="10.4188893"><ele>200.0</ele><time>2026-03-29T12:30:15.685Z</time></trkpt><trkpt lat="45.5203098" lon="10.4190171"><ele>200.0</ele><time>2026-03-29T12:30:16.641Z</time></trkpt><trkpt lat="45.5203462" lon="10.4191631"><ele>200.0</ele><time>2026-03-29T12:30:17.651Z</time></trkpt><trkpt lat="45.5203832" lon="10.4192943"><ele>200.0</ele><time>2026-03-29T12:30:18.651Z</time></trkpt><trkpt lat="45.5204035" lon="10.4193987"><ele>200.0</ele><time>2026-03-29T12:30:19.657Z</time></trkpt><trkpt lat="45.5204403" lon="10.4195612"><ele>200.0</ele><time>2026-03-29T12:30:21.635Z</time></trkpt><trkpt lat="45.5204604" lon="10.4196824"><ele>200.0</ele><time>2026-03-29T12:30:23.647Z</time></trkpt><trkpt lat="45.52053" lon="10.419805"><ele>200.0</ele><time>2026-03-29T12:30:25.617Z</time></trkpt><trkpt lat="45.5205921" lon="10.4198744"><ele>199.83333333333334</ele><time>2026-03-29T12:30:26.626Z</time></trkpt><trkpt lat="45.5206452" lon="10.4199628"><ele>199.66666666666669</ele><time>2026-03-29T12:30:27.623Z</time></trkpt><trkpt lat="45.5207141" lon="10.4200969"><ele>199.5</ele><time>2026-03-29T12:30:29.626Z</time></trkpt><trkpt lat="45.5207744" lon="10.4201879"><ele>199.33333333333331</ele><time>2026-03-29T12:30:31.615Z</time></trkpt><trkpt lat="45.5208272" lon="10.4202439"><ele>199.16666666666666</ele><time>2026-03-29T12:30:33.655Z</time></trkpt><trkpt lat="45.5208189" lon="10.4203654"><ele>199.0</ele><time>2026-03-29T12:30:35.642Z</time></trkpt><trkpt lat="45.5207668" lon="10.4205313"><ele>198.49999999999997</ele><time>2026-03-29T12:30:37.649Z</time></trkpt><trkpt lat="45.5207239" lon="10.4206064"><ele>198.0</ele><time>2026-03-29T12:30:38.661Z</time></trkpt><trkpt lat="45.5206762" lon="10.4206652"><ele>197.5</ele><time>2026-03-29T12:30:39.662Z</time></trkpt><trkpt lat="45.5206285" lon="10.4207826"><ele>197.0</ele><time>2026-03-29T12:30:41.651Z</time></trkpt><trkpt lat="45.5206205" lon="10.4208756"><ele>196.49999999999997</ele><time>2026-03-29T12:30:42.673Z</time></trkpt><trkpt lat="45.5206393" lon="10.4209981"><ele>196.0</ele><time>2026-03-29T12:30:43.671Z</time></trkpt><trkpt lat="45.5206686" lon="10.4211412"><ele>196.0</ele><time>2026-03-29T12:30:44.658Z</time></trkpt><trkpt lat="45.5207034" lon="10.4212846"><ele>196.0</ele><time>2026-03-29T12:30:45.678Z</time></trkpt><trkpt lat="45.5207384" lon="10.4214304"><ele>196.0</ele><time>2026-03-29T12:30:46.656Z</time></trkpt><trkpt lat="45.5207734" lon="10.4215692"><ele>196.0</ele><time>2026-03-29T12:30:47.651Z</time></trkpt><trkpt lat="45.5208167" lon="10.4216976"><ele>196.0</ele><time>2026-03-29T12:30:48.66Z</time></trkpt><trkpt lat="45.520878" lon="10.4218219"><ele>195.20000000000002</ele><time>2026-03-29T12:30:49.659Z</time></trkpt><trkpt lat="45.5209426" lon="10.4219446"><ele>194.4</ele><time>2026-03-29T12:30:50.644Z</time></trkpt><trkpt lat="45.5210069" lon="10.4220608"><ele>193.6</ele><time>2026-03-29T12:30:51.645Z</time></trkpt><trkpt lat="45.5210515" lon="10.4221717"><ele>192.8</ele><time>2026-03-29T12:30:52.645Z</time></trkpt><trkpt lat="45.5210547" lon="10.4222756"><ele>192.0</ele><time>2026-03-29T12:30:53.655Z</time></trkpt><trkpt lat="45.5210293" lon="10.4223841"><ele>191.8</ele><time>2026-03-29T12:30:54.662Z</time></trkpt><trkpt lat="45.5209988" lon="10.4225072"><ele>191.6</ele><time>2026-03-29T12:30:55.661Z</time></trkpt><trkpt lat="45.5209727" lon="10.4226442"><ele>191.4</ele><time>2026-03-29T12:30:56.661Z</time></trkpt><trkpt lat="45.5209745" lon="10.4227926"><ele>191.20000000000002</ele><time>2026-03-29T12:30:57.648Z</time></trkpt><trkpt lat="45.5209942" lon="10.4229546"><ele>191.0</ele><time>2026-03-29T12:30:58.659Z</time></trkpt><trkpt lat="45.5210144" lon="10.4231306"><ele>190.5</ele><time>2026-03-29T12:30:59.657Z</time></trkpt><trkpt lat="45.5210347" lon="10.4233021"><ele>190.0</ele><time>2026-03-29T12:31:00.661Z</time></trkpt><trkpt lat="45.5210483" lon="10.4234685"><ele>189.5</ele><time>2026-03-29T12:31:01.661Z</time></trkpt><trkpt lat="45.5210549" lon="10.4236392"><ele>189.0</ele><time>2026-03-29T12:31:02.669Z</time></trkpt><trkpt lat="45.5210559" lon="10.4238061"><ele>189.25</ele><time>2026-03-29T12:31:03.674Z</time></trkpt><trkpt lat="45.5210429" lon="10.4239715"><ele>189.5</ele><time>2026-03-29T12:31:04.664Z</time></trkpt><trkpt lat="45.521031" lon="10.4241427"><ele>189.75</ele><time>2026-03-29T12:31:05.672Z</time></trkpt><trkpt lat="45.5210145" lon="10.4243128"><ele>190.0</ele><time>2026-03-29T12:31:06.673Z</time></trkpt><trkpt lat="45.5209957" lon="10.4244876"><ele>190.0</ele><time>2026-03-29T12:31:07.669Z</time></trkpt><trkpt lat="45.5209781" lon="10.4246455"><ele>190.0</ele><time>2026-03-29T12:31:08.674Z</time></trkpt><trkpt lat="45.5209597" lon="10.424796"><ele>190.0</ele><time>2026-03-29T12:31:09.675Z</time></trkpt><trkpt lat="45.5209437" lon="10.4249243"><ele>190.0</ele><time>2026-03-29T12:31:10.663Z</time></trkpt><trkpt lat="45.5209278" lon="10.4250544"><ele>190.0</ele><time>2026-03-29T12:31:11.673Z</time></trkpt><trkpt lat="45.5209035" lon="10.4251993"><ele>190.0</ele><time>2026-03-29T12:31:12.69Z</time></trkpt><trkpt lat="45.5208834" lon="10.4253479"><ele>190.0</ele><time>2026-03-29T12:31:13.686Z</time></trkpt><trkpt lat="45.5208605" lon="10.4255062"><ele>190.0</ele><time>2026-03-29T12:31:14.673Z</time></trkpt><trkpt lat="45.5208383" lon="10.4256632"><ele>190.0</ele><time>2026-03-29T12:31:15.67Z</time></trkpt><trkpt lat="45.5208152" lon="10.425817"><ele>190.0</ele><time>2026-03-29T12:31:16.688Z</time></trkpt><trkpt lat="45.5208057" lon="10.4259766"><ele>190.25</ele><time>2026-03-29T12:31:17.667Z</time></trkpt><trkpt lat="45.5207995" lon="10.4261412"><ele>190.5</ele><time>2026-03-29T12:31:18.68Z</time></trkpt><trkpt lat="45.5207948" lon="10.4263109"><ele>190.75</ele><time>2026-03-29T12:31:19.678Z</time></trkpt><trkpt lat="45.5207948" lon="10.426493"><ele>191.0</ele><time>2026-03-29T12:31:20.663Z</time></trkpt><trkpt lat="45.5208003" lon="10.4266766"><ele>190.25</ele><time>2026-03-29T12:31:21.668Z</time></trkpt><trkpt lat="45.5208072" lon="10.426858"><ele>189.5</ele><time>2026-03-29T12:31:22.674Z</time></trkpt><trkpt lat="45.5208117" lon="10.4270275"><ele>188.75</ele><time>2026-03-29T12:31:23.676Z</time></trkpt><trkpt lat="45.5208159" lon="10.4271918"><ele>188.0</ele><time>2026-03-29T12:31:24.654Z</time></trkpt><trkpt lat="45.5208195" lon="10.4273534"><ele>187.8</ele><time>2026-03-29T12:31:25.66Z</time></trkpt><trkpt lat="45.5208209" lon="10.4275234"><ele>187.60000000000002</ele><time>2026-03-29T12:31:26.653Z</time></trkpt><trkpt lat="45.5208216" lon="10.4276732"><ele>187.39999999999998</ele><time>2026-03-29T12:31:27.642Z</time></trkpt><trkpt lat="45.5208232" lon="10.4278074"><ele>187.2</ele><time>2026-03-29T12:31:28.655Z</time></trkpt><trkpt lat="45.5208279" lon="10.4279366"><ele>187.0</ele><time>2026-03-29T12:31:29.655Z</time></trkpt><trkpt lat="45.5208415" lon="10.4280678"><ele>187.0</ele><time>2026-03-29T12:31:30.657Z</time></trkpt><trkpt lat="45.5208605" lon="10.4282046"><ele>187.0</ele><time>2026-03-29T12:31:31.65Z</time></trkpt><trkpt lat="45.5208809" lon="10.4283325"><ele>187.0</ele><time>2026-03-29T12:31:32.651Z</time></trkpt><trkpt lat="45.5209082" lon="10.4284674"><ele>187.0</ele><time>2026-03-29T12:31:33.649Z</time></trkpt><trkpt lat="45.5209409" lon="10.4286042"><ele>187.0</ele><time>2026-03-29T12:31:34.657Z</time></trkpt><trkpt lat="45.5209751" lon="10.4287453"><ele>186.5</ele><time>2026-03-29T12:31:35.658Z</time></trkpt><trkpt lat="45.5210089" lon="10.4288907"><ele>186.0</ele><time>2026-03-29T12:31:36.65Z</time></trkpt><trkpt lat="45.5210473" lon="10.4290448"><ele>185.5</ele><time>2026-03-29T12:31:37.661Z</time></trkpt><trkpt lat="45.5210777" lon="10.4292059"><ele>185.0</ele><time>2026-03-29T12:31:38.657Z</time></trkpt><trkpt lat="45.5211037" lon="10.4293741"><ele>185.0</ele><time>2026-03-29T12:31:39.643Z</time></trkpt><trkpt lat="45.5211218" lon="10.42955"><ele>185.0</ele><time>2026-03-29T12:31:40.648Z</time></trkpt><trkpt lat="45.521131" lon="10.4297238"><ele>185.0</ele><time>2026-03-29T12:31:41.653Z</time></trkpt><trkpt lat="45.5211469" lon="10.4299198"><ele>185.0</ele><time>2026-03-29T12:31:42.672Z</time></trkpt><trkpt lat="45.5211608" lon="10.4301062"><ele>185.25</ele><time>2026-03-29T12:31:43.65Z</time></trkpt><trkpt lat="45.5211773" lon="10.4302779"><ele>185.5</ele><time>2026-03-29T12:31:44.657Z</time></trkpt><trkpt lat="45.5211942" lon="10.4304376"><ele>185.75</ele><time>2026-03-29T12:31:45.654Z</time></trkpt><trkpt lat="45.5212048" lon="10.4306052"><ele>186.0</ele><time>2026-03-29T12:31:46.653Z</time></trkpt><trkpt lat="45.521222" lon="10.4307748"><ele>186.0</ele><time>2026-03-29T12:31:47.677Z</time></trkpt><trkpt lat="45.5212286" lon="10.4309361"><ele>186.0</ele><time>2026-03-29T12:31:48.656Z</time></trkpt><trkpt lat="45.5212494" lon="10.4310986"><ele>186.0</ele><time>2026-03-29T12:31:49.656Z</time></trkpt><trkpt lat="45.5212618" lon="10.4312577"><ele>186.0</ele><time>2026-03-29T12:31:50.659Z</time></trkpt><trkpt lat="45.5212733" lon="10.4314078"><ele>186.0</ele><time>2026-03-29T12:31:51.66Z</time></trkpt><trkpt lat="45.5212902" lon="10.4315626"><ele>187.0</ele><time>2026-03-29T12:31:52.657Z</time></trkpt><trkpt lat="45.5213105" lon="10.4317166"><ele>188.0</ele><time>2026-03-29T12:31:53.654Z</time></trkpt><trkpt lat="45.5213353" lon="10.4318495"><ele>189.0</ele><time>2026-03-29T12:31:54.656Z</time></trkpt><trkpt lat="45.5213621" lon="10.4319803"><ele>190.0</ele><time>2026-03-29T12:31:55.662Z</time></trkpt><trkpt lat="45.5213889" lon="10.4321036"><ele>191.0</ele><time>2026-03-29T12:31:56.647Z</time></trkpt><trkpt lat="45.521414" lon="10.432208"><ele>191.4</ele><time>2026-03-29T12:31:57.643Z</time></trkpt><trkpt lat="45.5214357" lon="10.4323078"><ele>191.8</ele><time>2026-03-29T12:31:58.661Z</time></trkpt><trkpt lat="45.5214844" lon="10.4324611"><ele>192.20000000000002</ele><time>2026-03-29T12:32:00.658Z</time></trkpt><trkpt lat="45.5215298" lon="10.4325437"><ele>192.60000000000002</ele><time>2026-03-29T12:32:02.654Z</time></trkpt><trkpt lat="45.5216265" lon="10.4325751"><ele>193.0</ele><time>2026-03-29T12:32:23.663Z</time></trkpt><trkpt lat="45.5217139" lon="10.432574"><ele>193.0</ele><time>2026-03-29T12:32:24.642Z</time></trkpt><trkpt lat="45.5218388" lon="10.4325655"><ele>193.0</ele><time>2026-03-29T12:32:25.639Z</time></trkpt><trkpt lat="45.5219691" lon="10.4325532"><ele>193.0</ele><time>2026-03-29T12:32:26.655Z</time></trkpt><trkpt lat="45.5221096" lon="10.4325474"><ele>193.0</ele><time>2026-03-29T12:32:27.653Z</time></trkpt><trkpt lat="45.5222609" lon="10.4325502"><ele>194.33333333333331</ele><time>2026-03-29T12:32:28.662Z</time></trkpt><trkpt lat="45.5224095" lon="10.4325648"><ele>195.66666666666669</ele><time>2026-03-29T12:32:29.646Z</time></trkpt><trkpt lat="45.5225584" lon="10.4326016"><ele>197.0</ele><time>2026-03-29T12:32:30.656Z</time></trkpt><trkpt lat="45.5227216" lon="10.4326472"><ele>197.0</ele><time>2026-03-29T12:32:31.656Z</time></trkpt><trkpt lat="45.522875" lon="10.4326759"><ele>197.0</ele><time>2026-03-29T12:32:32.652Z</time></trkpt><trkpt lat="45.523026" lon="10.43271"><ele>197.0</ele><time>2026-03-29T12:32:33.65Z</time></trkpt><trkpt lat="45.5231814" lon="10.4327533"><ele>198.0</ele><time>2026-03-29T12:32:34.65Z</time></trkpt><trkpt lat="45.5233328" lon="10.432786"><ele>199.0</ele><time>2026-03-29T12:32:35.65Z</time></trkpt><trkpt lat="45.5234759" lon="10.4328217"><ele>200.0</ele><time>2026-03-29T12:32:36.641Z</time></trkpt><trkpt lat="45.5236224" lon="10.4328789"><ele>200.5</ele><time>2026-03-29T12:32:37.657Z</time></trkpt><trkpt lat="45.5237572" lon="10.4329651"><ele>201.0</ele><time>2026-03-29T12:32:38.645Z</time></trkpt><trkpt lat="45.523888" lon="10.433067"><ele>201.5</ele><time>2026-03-29T12:32:39.646Z</time></trkpt><trkpt lat="45.5240131" lon="10.4331847"><ele>202.0</ele><time>2026-03-29T12:32:40.647Z</time></trkpt><trkpt lat="45.524131" lon="10.4333154"><ele>203.0</ele><time>2026-03-29T12:32:41.654Z</time></trkpt><trkpt lat="45.5242508" lon="10.4334426"><ele>204.0</ele><time>2026-03-29T12:32:42.661Z</time></trkpt><trkpt lat="45.524361" lon="10.4335891"><ele>205.0</ele><time>2026-03-29T12:32:43.659Z</time></trkpt><trkpt lat="45.5244816" lon="10.4337427"><ele>205.33333333333331</ele><time>2026-03-29T12:32:44.654Z</time></trkpt><trkpt lat="45.5246059" lon="10.4338903"><ele>205.66666666666669</ele><time>2026-03-29T12:32:45.652Z</time></trkpt><trkpt lat="45.5247431" lon="10.4340384"><ele>206.0</ele><time>2026-03-29T12:32:46.653Z</time></trkpt><trkpt lat="45.5248791" lon="10.4341961"><ele>206.0</ele><time>2026-03-29T12:32:47.653Z</time></trkpt><trkpt lat="45.5250136" lon="10.4343475"><ele>206.0</ele><time>2026-03-29T12:32:48.657Z</time></trkpt><trkpt lat="45.5251394" lon="10.4344976"><ele>206.0</ele><time>2026-03-29T12:32:49.678Z</time></trkpt><trkpt lat="45.5252651" lon="10.4346508"><ele>206.33333333333334</ele><time>2026-03-29T12:32:50.652Z</time></trkpt><trkpt lat="45.525384" lon="10.4348046"><ele>206.66666666666669</ele><time>2026-03-29T12:32:51.654Z</time></trkpt><trkpt lat="45.5255109" lon="10.4349559"><ele>207.0</ele><time>2026-03-29T12:32:52.658Z</time></trkpt><trkpt lat="45.5256257" lon="10.435098"><ele>207.0</ele><time>2026-03-29T12:32:53.655Z</time></trkpt><trkpt lat="45.525741" lon="10.4352386"><ele>207.0</ele><time>2026-03-29T12:32:54.653Z</time></trkpt><trkpt lat="45.5258564" lon="10.4353766"><ele>207.0</ele><time>2026-03-29T12:32:55.648Z</time></trkpt><trkpt lat="45.5259653" lon="10.43551"><ele>207.0</ele><time>2026-03-29T12:32:56.652Z</time></trkpt><trkpt lat="45.5260746" lon="10.4356441"><ele>207.0</ele><time>2026-03-29T12:32:57.653Z</time></trkpt><trkpt lat="45.5261827" lon="10.4357812"><ele>207.0</ele><time>2026-03-29T12:32:58.655Z</time></trkpt><trkpt lat="45.5262745" lon="10.4359308"><ele>207.0</ele><time>2026-03-29T12:32:59.65Z</time></trkpt><trkpt lat="45.5263615" lon="10.4360923"><ele>207.0</ele><time>2026-03-29T12:33:00.653Z</time></trkpt><trkpt lat="45.5264452" lon="10.4362686"><ele>209.0</ele><time>2026-03-29T12:33:01.647Z</time></trkpt><trkpt lat="45.5265282" lon="10.4364558"><ele>211.0</ele><time>2026-03-29T12:33:02.655Z</time></trkpt><trkpt lat="45.5266203" lon="10.436654"><ele>213.0</ele><time>2026-03-29T12:33:03.65Z</time></trkpt><trkpt lat="45.5267052" lon="10.4368515"><ele>213.0</ele><time>2026-03-29T12:33:04.648Z</time></trkpt><trkpt lat="45.5268004" lon="10.4370244"><ele>213.0</ele><time>2026-03-29T12:33:05.652Z</time></trkpt><trkpt lat="45.5269119" lon="10.437195"><ele>213.0</ele><time>2026-03-29T12:33:06.641Z</time></trkpt><trkpt lat="45.5270229" lon="10.4373405"><ele>213.33333333333331</ele><time>2026-03-29T12:33:07.655Z</time></trkpt><trkpt lat="45.5271425" lon="10.4374739"><ele>213.66666666666666</ele><time>2026-03-29T12:33:08.645Z</time></trkpt><trkpt lat="45.527269" lon="10.4375989"><ele>214.0</ele><time>2026-03-29T12:33:09.648Z</time></trkpt><trkpt lat="45.5274037" lon="10.437708"><ele>214.0</ele><time>2026-03-29T12:33:10.645Z</time></trkpt><trkpt lat="45.527531" lon="10.4378029"><ele>214.0</ele><time>2026-03-29T12:33:11.65Z</time></trkpt><trkpt lat="45.5276504" lon="10.437901"><ele>214.0</ele><time>2026-03-29T12:33:12.655Z</time></trkpt><trkpt lat="45.5277615" lon="10.4379959"><ele>214.0</ele><time>2026-03-29T12:33:13.644Z</time></trkpt><trkpt lat="45.5278775" lon="10.4381068"><ele>214.33333333333331</ele><time>2026-03-29T12:33:14.648Z</time></trkpt><trkpt lat="45.5279838" lon="10.4382385"><ele>214.66666666666669</ele><time>2026-03-29T12:33:15.637Z</time></trkpt><trkpt lat="45.5280912" lon="10.438398"><ele>215.0</ele><time>2026-03-29T12:33:16.633Z</time></trkpt><trkpt lat="45.5281876" lon="10.4385778"><ele>215.0</ele><time>2026-03-29T12:33:17.632Z</time></trkpt><trkpt lat="45.528279" lon="10.4387801"><ele>215.0</ele><time>2026-03-29T12:33:18.647Z</time></trkpt><trkpt lat="45.5283484" lon="10.4389949"><ele>215.0</ele><time>2026-03-29T12:33:19.651Z</time></trkpt><trkpt lat="45.5284361" lon="10.439215"><ele>216.0</ele><time>2026-03-29T12:33:20.665Z</time></trkpt><trkpt lat="45.5285086" lon="10.4394355"><ele>217.0</ele><time>2026-03-29T12:33:21.652Z</time></trkpt><trkpt lat="45.5285692" lon="10.4396578"><ele>218.0</ele><time>2026-03-29T12:33:22.636Z</time></trkpt><trkpt lat="45.5286181" lon="10.4398457"><ele>218.25</ele><time>2026-03-29T12:33:23.653Z</time></trkpt><trkpt lat="45.5286671" lon="10.4400035"><ele>218.5</ele><time>2026-03-29T12:33:24.645Z</time></trkpt><trkpt lat="45.5287258" lon="10.4401681"><ele>218.75</ele><time>2026-03-29T12:33:25.654Z</time></trkpt><trkpt lat="45.5287722" lon="10.4403427"><ele>219.0</ele><time>2026-03-29T12:33:26.649Z</time></trkpt><trkpt lat="45.5288104" lon="10.4405115"><ele>219.2</ele><time>2026-03-29T12:33:27.656Z</time></trkpt><trkpt lat="45.5288583" lon="10.4406527"><ele>219.39999999999998</ele><time>2026-03-29T12:33:28.649Z</time></trkpt><trkpt lat="45.5289095" lon="10.4407713"><ele>219.6</ele><time>2026-03-29T12:33:29.654Z</time></trkpt><trkpt lat="45.528953" lon="10.4408803"><ele>219.8</ele><time>2026-03-29T12:33:30.655Z</time></trkpt><trkpt lat="45.5289885" lon="10.440998"><ele>220.0</ele><time>2026-03-29T12:33:31.665Z</time></trkpt><trkpt lat="45.5290283" lon="10.4411082"><ele>219.99999999999997</ele><time>2026-03-29T12:33:32.668Z</time></trkpt><trkpt lat="45.5290677" lon="10.4412067"><ele>220.0</ele><time>2026-03-29T12:33:33.657Z</time></trkpt><trkpt lat="45.5291045" lon="10.4412933"><ele>220.0</ele><time>2026-03-29T12:33:34.661Z</time></trkpt><trkpt lat="45.5291493" lon="10.4413939"><ele>220.0</ele><time>2026-03-29T12:33:36.651Z</time></trkpt><trkpt lat="45.5291857" lon="10.4413076"><ele>219.99999999999997</ele><time>2026-03-29T12:33:52.667Z</time></trkpt><trkpt lat="45.5291298" lon="10.4411916"><ele>220.0</ele><time>2026-03-29T12:33:53.664Z</time></trkpt><trkpt lat="45.5290606" lon="10.4410681"><ele>220.0</ele><time>2026-03-29T12:33:54.644Z</time></trkpt><trkpt lat="45.5289873" lon="10.4409136"><ele>220.0</ele><time>2026-03-29T12:33:55.659Z</time></trkpt><trkpt lat="45.5289366" lon="10.440762"><ele>220.0</ele><time>2026-03-29T12:33:56.65Z</time></trkpt><trkpt lat="45.528889" lon="10.4406201"><ele>220.0</ele><time>2026-03-29T12:33:57.657Z</time></trkpt><trkpt lat="45.528845" lon="10.4404886"><ele>219.99999999999997</ele><time>2026-03-29T12:33:58.66Z</time></trkpt><trkpt lat="45.5288114" lon="10.4403742"><ele>220.0</ele><time>2026-03-29T12:33:59.657Z</time></trkpt><trkpt lat="45.5287809" lon="10.4402869"><ele>220.0</ele><time>2026-03-29T12:34:00.66Z</time></trkpt><trkpt lat="45.5287112" lon="10.4401732"><ele>220.0</ele><time>2026-03-29T12:34:02.659Z</time></trkpt><trkpt lat="45.5286337" lon="10.4402057"><ele>219.99999999999997</ele><time>2026-03-29T12:34:04.674Z</time></trkpt><trkpt lat="45.5285889" lon="10.4403123"><ele>220.0</ele><time>2026-03-29T12:34:06.646Z</time></trkpt><trkpt lat="45.5285986" lon="10.4404968"><ele>219.75</ele><time>2026-03-29T12:34:08.633Z</time></trkpt><trkpt lat="45.5285625" lon="10.4406832"><ele>219.5</ele><time>2026-03-29T12:34:10.627Z</time></trkpt><trkpt lat="45.5285374" lon="10.4409075"><ele>219.25</ele><time>2026-03-29T12:34:12.637Z</time></trkpt><trkpt lat="45.5285003" lon="10.4410601"><ele>219.0</ele><time>2026-03-29T12:34:13.618Z</time></trkpt><trkpt lat="45.5284546" lon="10.4412184"><ele>219.0</ele><time>2026-03-29T12:34:14.655Z</time></trkpt><trkpt lat="45.5284128" lon="10.4413497"><ele>219.0</ele><time>2026-03-29T12:34:15.638Z</time></trkpt><trkpt lat="45.5283702" lon="10.4414752"><ele>219.0</ele><time>2026-03-29T12:34:16.635Z</time></trkpt><trkpt lat="45.5283396" lon="10.4415665"><ele>219.0</ele><time>2026-03-29T12:34:17.641Z</time></trkpt><trkpt lat="45.5283093" lon="10.4416477"><ele>219.0</ele><time>2026-03-29T12:34:18.659Z</time></trkpt><trkpt lat="45.5282622" lon="10.4417751"><ele>219.0</ele><time>2026-03-29T12:34:20.65Z</time></trkpt><trkpt lat="45.5282098" lon="10.4418296"><ele>219.0</ele><time>2026-03-29T12:34:22.688Z</time></trkpt><trkpt lat="45.5280699" lon="10.4417998"><ele>218.99999999999997</ele><time>2026-03-29T12:34:24.639Z</time></trkpt><trkpt lat="45.5279781" lon="10.4417661"><ele>218.99999999999997</ele><time>2026-03-29T12:34:25.634Z</time></trkpt><trkpt lat="45.5278766" lon="10.4417416"><ele>219.0</ele><time>2026-03-29T12:34:26.645Z</time></trkpt><trkpt lat="45.5277765" lon="10.4416989"><ele>219.0</ele><time>2026-03-29T12:34:27.667Z</time></trkpt><trkpt lat="45.5276776" lon="10.4416436"><ele>218.39999999999998</ele><time>2026-03-29T12:34:28.658Z</time></trkpt><trkpt lat="45.5275829" lon="10.4415795"><ele>217.79999999999998</ele><time>2026-03-29T12:34:29.645Z</time></trkpt><trkpt lat="45.5274861" lon="10.4415172"><ele>217.20000000000002</ele><time>2026-03-29T12:34:30.643Z</time></trkpt><trkpt lat="45.5273789" lon="10.4414702"><ele>216.60000000000002</ele><time>2026-03-29T12:34:31.654Z</time></trkpt><trkpt lat="45.5272623" lon="10.4414248"><ele>216.0</ele><time>2026-03-29T12:34:32.643Z</time></trkpt><trkpt lat="45.5271503" lon="10.4413859"><ele>215.5</ele><time>2026-03-29T12:34:33.647Z</time></trkpt><trkpt lat="45.5270569" lon="10.4413429"><ele>215.0</ele><time>2026-03-29T12:34:34.645Z</time></trkpt><trkpt lat="45.5269751" lon="10.4413074"><ele>214.5</ele><time>2026-03-29T12:34:35.639Z</time></trkpt><trkpt lat="45.52691" lon="10.4412654"><ele>214.0</ele><time>2026-03-29T12:34:36.639Z</time></trkpt><trkpt lat="45.5268413" lon="10.4412"><ele>213.5</ele><time>2026-03-29T12:34:37.643Z</time></trkpt><trkpt lat="45.52676" lon="10.4411045"><ele>213.0</ele><time>2026-03-29T12:34:38.625Z</time></trkpt><trkpt lat="45.5266748" lon="10.4409968"><ele>213.0</ele><time>2026-03-29T12:34:39.64Z</time></trkpt><trkpt lat="45.5265876" lon="10.440866"><ele>213.0</ele><time>2026-03-29T12:34:40.634Z</time></trkpt><trkpt lat="45.5264989" lon="10.4407291"><ele>213.0</ele><time>2026-03-29T12:34:41.641Z</time></trkpt><trkpt lat="45.5264041" lon="10.4406003"><ele>213.0</ele><time>2026-03-29T12:34:42.647Z</time></trkpt><trkpt lat="45.5263033" lon="10.4404702"><ele>212.5</ele><time>2026-03-29T12:34:43.647Z</time></trkpt><trkpt lat="45.526209" lon="10.4403401"><ele>212.0</ele><time>2026-03-29T12:34:44.65Z</time></trkpt><trkpt lat="45.526123" lon="10.4402376"><ele>211.5</ele><time>2026-03-29T12:34:45.648Z</time></trkpt><trkpt lat="45.5260349" lon="10.440144"><ele>211.0</ele><time>2026-03-29T12:34:46.653Z</time></trkpt><trkpt lat="45.5259414" lon="10.4400668"><ele>210.99999999999997</ele><time>2026-03-29T12:34:47.655Z</time></trkpt><trkpt lat="45.5258624" lon="10.4400002"><ele>211.0</ele><time>2026-03-29T12:34:48.645Z</time></trkpt><trkpt lat="45.5258084" lon="10.439954"><ele>211.0</ele><time>2026-03-29T12:34:49.644Z</time></trkpt><trkpt lat="45.5257409" lon="10.4399322"><ele>211.0</ele><time>2026-03-29T12:34:51.645Z</time></trkpt><trkpt lat="45.5257808" lon="10.4400098"><ele>210.99999999999997</ele><time>2026-03-29T12:35:20.667Z</time></trkpt><trkpt lat="45.5258777" lon="10.4400263"><ele>211.0</ele><time>2026-03-29T12:35:31.647Z</time></trkpt><trkpt lat="45.5259471" lon="10.4400466"><ele>211.0</ele><time>2026-03-29T12:35:32.662Z</time></trkpt><trkpt lat="45.5260402" lon="10.4401007"><ele>211.0</ele><time>2026-03-29T12:35:33.655Z</time></trkpt><trkpt lat="45.5261417" lon="10.4401856"><ele>211.0</ele><time>2026-03-29T12:35:34.646Z</time></trkpt><trkpt lat="45.5262493" lon="10.4402857"><ele>211.0</ele><time>2026-03-29T12:35:35.647Z</time></trkpt><trkpt lat="45.526351" lon="10.4403907"><ele>211.4</ele><time>2026-03-29T12:35:36.644Z</time></trkpt><trkpt lat="45.5264384" lon="10.4405075"><ele>211.8</ele><time>2026-03-29T12:35:37.652Z</time></trkpt><trkpt lat="45.5265267" lon="10.440626"><ele>212.20000000000002</ele><time>2026-03-29T12:35:38.651Z</time></trkpt><trkpt lat="45.5266013" lon="10.4407313"><ele>212.60000000000002</ele><time>2026-03-29T12:35:39.649Z</time></trkpt><trkpt lat="45.5266629" lon="10.4408264"><ele>213.0</ele><time>2026-03-29T12:35:40.643Z</time></trkpt><trkpt lat="45.5267239" lon="10.4409101"><ele>213.0</ele><time>2026-03-29T12:35:41.653Z</time></trkpt><trkpt lat="45.5267787" lon="10.4410065"><ele>213.0</ele><time>2026-03-29T12:35:42.667Z</time></trkpt><trkpt lat="45.5268326" lon="10.4411039"><ele>213.0</ele><time>2026-03-29T12:35:43.655Z</time></trkpt><trkpt lat="45.5268965" lon="10.441203"><ele>213.0</ele><time>2026-03-29T12:35:44.645Z</time></trkpt><trkpt lat="45.5269591" lon="10.44128"><ele>213.0</ele><time>2026-03-29T12:35:45.657Z</time></trkpt><trkpt lat="45.5270161" lon="10.44134"><ele>213.0</ele><time>2026-03-29T12:35:46.651Z</time></trkpt><trkpt lat="45.5270761" lon="10.4413966"><ele>213.5</ele><time>2026-03-29T12:35:47.637Z</time></trkpt><trkpt lat="45.52714" lon="10.4414387"><ele>214.0</ele><time>2026-03-29T12:35:48.637Z</time></trkpt><trkpt lat="45.5272231" lon="10.4414596"><ele>214.5</ele><time>2026-03-29T12:35:49.634Z</time></trkpt><trkpt lat="45.5273035" lon="10.4414883"><ele>215.0</ele><time>2026-03-29T12:35:50.647Z</time></trkpt><trkpt lat="45.5273747" lon="10.4415006"><ele>215.5</ele><time>2026-03-29T12:35:51.656Z</time></trkpt><trkpt lat="45.5274866" lon="10.4415239"><ele>216.0</ele><time>2026-03-29T12:35:53.637Z</time></trkpt><trkpt lat="45.5275497" lon="10.4415373"><ele>216.0</ele><time>2026-03-29T12:35:55.641Z</time></trkpt><trkpt lat="45.5274714" lon="10.4415992"><ele>216.0</ele><time>2026-03-29T12:36:05.652Z</time></trkpt><trkpt lat="45.5273102" lon="10.4416297"><ele>216.0</ele><time>2026-03-29T12:36:07.643Z</time></trkpt><trkpt lat="45.5272126" lon="10.4416889"><ele>216.0</ele><time>2026-03-29T12:36:08.635Z</time></trkpt><trkpt lat="45.5271191" lon="10.441746"><ele>215.0</ele><time>2026-03-29T12:36:09.623Z</time></trkpt><trkpt lat="45.5270201" lon="10.4417873"><ele>214.00000000000003</ele><time>2026-03-29T12:36:10.633Z</time></trkpt><trkpt lat="45.5269362" lon="10.4418136"><ele>213.0</ele><time>2026-03-29T12:36:11.634Z</time></trkpt><trkpt lat="45.5268354" lon="10.4418398"><ele>212.0</ele><time>2026-03-29T12:36:12.652Z</time></trkpt><trkpt lat="45.5267185" lon="10.4418444"><ele>211.0</ele><time>2026-03-29T12:36:13.657Z</time></trkpt><trkpt lat="45.5266099" lon="10.4418519"><ele>211.0</ele><time>2026-03-29T12:36:14.654Z</time></trkpt><trkpt lat="45.5265025" lon="10.4418685"><ele>211.0</ele><time>2026-03-29T12:36:15.653Z</time></trkpt><trkpt lat="45.5263998" lon="10.4418885"><ele>211.0</ele><time>2026-03-29T12:36:16.654Z</time></trkpt><trkpt lat="45.5262896" lon="10.4419164"><ele>211.0</ele><time>2026-03-29T12:36:17.655Z</time></trkpt><trkpt lat="45.526176" lon="10.4419509"><ele>211.0</ele><time>2026-03-29T12:36:18.655Z</time></trkpt><trkpt lat="45.5260573" lon="10.4419912"><ele>209.25</ele><time>2026-03-29T12:36:19.664Z</time></trkpt><trkpt lat="45.5259385" lon="10.4420339"><ele>207.5</ele><time>2026-03-29T12:36:20.656Z</time></trkpt><trkpt lat="45.5258259" lon="10.4420852"><ele>205.75</ele><time>2026-03-29T12:36:21.662Z</time></trkpt><trkpt lat="45.5257172" lon="10.4421294"><ele>204.0</ele><time>2026-03-29T12:36:22.642Z</time></trkpt><trkpt lat="45.525611" lon="10.4421934"><ele>203.5</ele><time>2026-03-29T12:36:23.643Z</time></trkpt><trkpt lat="45.5255221" lon="10.4422622"><ele>203.0</ele><time>2026-03-29T12:36:24.65Z</time></trkpt><trkpt lat="45.5254501" lon="10.442325"><ele>202.5</ele><time>2026-03-29T12:36:25.665Z</time></trkpt><trkpt lat="45.5253797" lon="10.4423755"><ele>202.0</ele><time>2026-03-29T12:36:26.657Z</time></trkpt><trkpt lat="45.5253088" lon="10.4424371"><ele>201.5</ele><time>2026-03-29T12:36:27.649Z</time></trkpt><trkpt lat="45.5252203" lon="10.4425024"><ele>201.0</ele><time>2026-03-29T12:36:28.655Z</time></trkpt><trkpt lat="45.5251141" lon="10.4425761"><ele>200.25</ele><time>2026-03-29T12:36:29.654Z</time></trkpt><trkpt lat="45.5249954" lon="10.442638"><ele>199.5</ele><time>2026-03-29T12:36:30.654Z</time></trkpt><trkpt lat="45.5248711" lon="10.4426983"><ele>198.75</ele><time>2026-03-29T12:36:31.659Z</time></trkpt><trkpt lat="45.5247461" lon="10.4427663"><ele>198.0</ele><time>2026-03-29T12:36:32.659Z</time></trkpt><trkpt lat="45.5246304" lon="10.4428264"><ele>198.0</ele><time>2026-03-29T12:36:33.651Z</time></trkpt><trkpt lat="45.5245166" lon="10.4428742"><ele>198.0</ele><time>2026-03-29T12:36:34.657Z</time></trkpt><trkpt lat="45.5244158" lon="10.4429261"><ele>198.0</ele><time>2026-03-29T12:36:35.648Z</time></trkpt><trkpt lat="45.5243339" lon="10.4429829"><ele>198.0</ele><time>2026-03-29T12:36:36.673Z</time></trkpt><trkpt lat="45.5242485" lon="10.4430377"><ele>198.0</ele><time>2026-03-29T12:36:37.662Z</time></trkpt><trkpt lat="45.5241598" lon="10.44309"><ele>198.0</ele><time>2026-03-29T12:36:38.658Z</time></trkpt><trkpt lat="45.5240745" lon="10.4431403"><ele>198.0</ele><time>2026-03-29T12:36:39.664Z</time></trkpt><trkpt lat="45.5239746" lon="10.4431919"><ele>198.0</ele><time>2026-03-29T12:36:40.653Z</time></trkpt><trkpt lat="45.5238851" lon="10.4432272"><ele>198.0</ele><time>2026-03-29T12:36:41.645Z</time></trkpt><trkpt lat="45.5237943" lon="10.4432365"><ele>198.0</ele><time>2026-03-29T12:36:42.643Z</time></trkpt><trkpt lat="45.5236947" lon="10.4432179"><ele>198.60000000000002</ele><time>2026-03-29T12:36:43.643Z</time></trkpt><trkpt lat="45.5236015" lon="10.4431867"><ele>199.20000000000002</ele><time>2026-03-29T12:36:44.65Z</time></trkpt><trkpt lat="45.5235116" lon="10.4431562"><ele>199.8</ele><time>2026-03-29T12:36:45.66Z</time></trkpt><trkpt lat="45.5234208" lon="10.4431186"><ele>200.4</ele><time>2026-03-29T12:36:46.656Z</time></trkpt><trkpt lat="45.5233225" lon="10.443103"><ele>201.0</ele><time>2026-03-29T12:36:47.659Z</time></trkpt><trkpt lat="45.5232152" lon="10.4430848"><ele>201.0</ele><time>2026-03-29T12:36:48.655Z</time></trkpt><trkpt lat="45.5231059" lon="10.4430717"><ele>201.0</ele><time>2026-03-29T12:36:49.657Z</time></trkpt><trkpt lat="45.5229931" lon="10.4430715"><ele>201.0</ele><time>2026-03-29T12:36:50.651Z</time></trkpt><trkpt lat="45.5228912" lon="10.4430842"><ele>201.0</ele><time>2026-03-29T12:36:51.651Z</time></trkpt><trkpt lat="45.5227983" lon="10.4431138"><ele>201.0</ele><time>2026-03-29T12:36:52.65Z</time></trkpt><trkpt lat="45.5227007" lon="10.4431604"><ele>201.0</ele><time>2026-03-29T12:36:53.652Z</time></trkpt><trkpt lat="45.5225908" lon="10.4432198"><ele>201.0</ele><time>2026-03-29T12:36:54.65Z</time></trkpt><trkpt lat="45.5224759" lon="10.4432793"><ele>201.0</ele><time>2026-03-29T12:36:55.656Z</time></trkpt><trkpt lat="45.5223749" lon="10.4433451"><ele>201.0</ele><time>2026-03-29T12:36:56.671Z</time></trkpt><trkpt lat="45.5222703" lon="10.4434104"><ele>201.0</ele><time>2026-03-29T12:36:57.655Z</time></trkpt><trkpt lat="45.5221687" lon="10.4434773"><ele>201.0</ele><time>2026-03-29T12:36:58.653Z</time></trkpt><trkpt lat="45.5220659" lon="10.4435465"><ele>201.0</ele><time>2026-03-29T12:36:59.646Z</time></trkpt><trkpt lat="45.5219694" lon="10.4436087"><ele>201.0</ele><time>2026-03-29T12:37:00.644Z</time></trkpt><trkpt lat="45.5218673" lon="10.4436719"><ele>201.0</ele><time>2026-03-29T12:37:01.646Z</time></trkpt><trkpt lat="45.5217743" lon="10.4437279"><ele>201.20000000000002</ele><time>2026-03-29T12:37:02.641Z</time></trkpt><trkpt lat="45.5216845" lon="10.4437724"><ele>201.4</ele><time>2026-03-29T12:37:03.642Z</time></trkpt><trkpt lat="45.5215857" lon="10.4437896"><ele>201.6</ele><time>2026-03-29T12:37:04.644Z</time></trkpt><trkpt lat="45.5214723" lon="10.4438195"><ele>201.8</ele><time>2026-03-29T12:37:05.652Z</time></trkpt><trkpt lat="45.5213642" lon="10.4438558"><ele>202.0</ele><time>2026-03-29T12:37:06.649Z</time></trkpt><trkpt lat="45.521278" lon="10.4438806"><ele>201.0</ele><time>2026-03-29T12:37:07.652Z</time></trkpt><trkpt lat="45.5211947" lon="10.4439079"><ele>200.0</ele><time>2026-03-29T12:37:08.648Z</time></trkpt><trkpt lat="45.5211231" lon="10.443923"><ele>199.0</ele><time>2026-03-29T12:37:09.649Z</time></trkpt><trkpt lat="45.5210549" lon="10.4439319"><ele>198.0</ele><time>2026-03-29T12:37:10.652Z</time></trkpt><trkpt lat="45.5209495" lon="10.4439246"><ele>197.0</ele><time>2026-03-29T12:37:12.652Z</time></trkpt><trkpt lat="45.5207901" lon="10.4438792"><ele>197.0</ele><time>2026-03-29T12:37:14.658Z</time></trkpt><trkpt lat="45.52068" lon="10.44384"><ele>197.0</ele><time>2026-03-29T12:37:15.649Z</time></trkpt><trkpt lat="45.5205525" lon="10.4437954"><ele>197.0</ele><time>2026-03-29T12:37:16.657Z</time></trkpt><trkpt lat="45.5204183" lon="10.4437603"><ele>197.0</ele><time>2026-03-29T12:37:17.656Z</time></trkpt><trkpt lat="45.5202738" lon="10.4437298"><ele>196.25</ele><time>2026-03-29T12:37:18.656Z</time></trkpt><trkpt lat="45.5201296" lon="10.4437028"><ele>195.5</ele><time>2026-03-29T12:37:19.661Z</time></trkpt><trkpt lat="45.5199937" lon="10.4436526"><ele>194.75</ele><time>2026-03-29T12:37:20.652Z</time></trkpt><trkpt lat="45.5198806" lon="10.4436112"><ele>194.0</ele><time>2026-03-29T12:37:21.659Z</time></trkpt><trkpt lat="45.5197481" lon="10.4435639"><ele>194.0</ele><time>2026-03-29T12:37:22.653Z</time></trkpt><trkpt lat="45.5196099" lon="10.4435098"><ele>194.0</ele><time>2026-03-29T12:37:23.657Z</time></trkpt><trkpt lat="45.5194642" lon="10.4434586"><ele>194.0</ele><time>2026-03-29T12:37:24.657Z</time></trkpt><trkpt lat="45.5193311" lon="10.4434081"><ele>194.0</ele><time>2026-03-29T12:37:25.657Z</time></trkpt><trkpt lat="45.5192079" lon="10.4433728"><ele>193.75</ele><time>2026-03-29T12:37:26.653Z</time></trkpt><trkpt lat="45.5190899" lon="10.4433567"><ele>193.5</ele><time>2026-03-29T12:37:27.659Z</time></trkpt><trkpt lat="45.5189746" lon="10.4433562"><ele>193.25</ele><time>2026-03-29T12:37:28.648Z</time></trkpt><trkpt lat="45.518858" lon="10.4433709"><ele>193.0</ele><time>2026-03-29T12:37:29.653Z</time></trkpt><trkpt lat="45.5187395" lon="10.4433945"><ele>192.4</ele><time>2026-03-29T12:37:30.653Z</time></trkpt><trkpt lat="45.5186241" lon="10.4434128"><ele>191.8</ele><time>2026-03-29T12:37:31.66Z</time></trkpt><trkpt lat="45.518516" lon="10.4434361"><ele>191.2</ele><time>2026-03-29T12:37:32.645Z</time></trkpt><trkpt lat="45.5184218" lon="10.4434374"><ele>190.6</ele><time>2026-03-29T12:37:33.65Z</time></trkpt><trkpt lat="45.5183509" lon="10.4434249"><ele>190.0</ele><time>2026-03-29T12:37:34.651Z</time></trkpt><trkpt lat="45.5182831" lon="10.4433921"><ele>190.0</ele><time>2026-03-29T12:37:36.645Z</time></trkpt><trkpt lat="45.5181943" lon="10.443351"><ele>190.0</ele><time>2026-03-29T12:37:38.657Z</time></trkpt><trkpt lat="45.5181163" lon="10.4433349"><ele>190.0</ele><time>2026-03-29T12:37:39.654Z</time></trkpt><trkpt lat="45.5180154" lon="10.4433043"><ele>190.0</ele><time>2026-03-29T12:37:40.656Z</time></trkpt><trkpt lat="45.51789" lon="10.443268"><ele>190.0</ele><time>2026-03-29T12:37:41.651Z</time></trkpt><trkpt lat="45.5177667" lon="10.4432277"><ele>189.25</ele><time>2026-03-29T12:37:42.652Z</time></trkpt><trkpt lat="45.5176557" lon="10.4431935"><ele>188.5</ele><time>2026-03-29T12:37:43.654Z</time></trkpt><trkpt lat="45.5175423" lon="10.4431599"><ele>187.75</ele><time>2026-03-29T12:37:44.643Z</time></trkpt><trkpt lat="45.5174222" lon="10.4431243"><ele>187.0</ele><time>2026-03-29T12:37:45.629Z</time></trkpt><trkpt lat="45.5173167" lon="10.4430871"><ele>187.0</ele><time>2026-03-29T12:37:46.631Z</time></trkpt><trkpt lat="45.5172045" lon="10.4430283"><ele>187.0</ele><time>2026-03-29T12:37:47.626Z</time></trkpt><trkpt lat="45.5170844" lon="10.4429568"><ele>187.0</ele><time>2026-03-29T12:37:48.637Z</time></trkpt><trkpt lat="45.5169626" lon="10.4428929"><ele>187.0</ele><time>2026-03-29T12:37:49.63Z</time></trkpt><trkpt lat="45.5168527" lon="10.4428376"><ele>186.39999999999998</ele><time>2026-03-29T12:37:50.618Z</time></trkpt><trkpt lat="45.5167418" lon="10.4427953"><ele>185.79999999999998</ele><time>2026-03-29T12:37:51.627Z</time></trkpt><trkpt lat="45.5166413" lon="10.442747"><ele>185.2</ele><time>2026-03-29T12:37:52.629Z</time></trkpt><trkpt lat="45.5165445" lon="10.4427056"><ele>184.6</ele><time>2026-03-29T12:37:53.633Z</time></trkpt><trkpt lat="45.5164541" lon="10.4426735"><ele>184.0</ele><time>2026-03-29T12:37:54.637Z</time></trkpt><trkpt lat="45.5163713" lon="10.4426401"><ele>184.0</ele><time>2026-03-29T12:37:55.651Z</time></trkpt><trkpt lat="45.5163002" lon="10.4426296"><ele>184.0</ele><time>2026-03-29T12:37:56.651Z</time></trkpt><trkpt lat="45.5161848" lon="10.4426601"><ele>184.0</ele><time>2026-03-29T12:37:58.668Z</time></trkpt><trkpt lat="45.5161289" lon="10.4427384"><ele>184.0</ele><time>2026-03-29T12:37:59.648Z</time></trkpt><trkpt lat="45.5160968" lon="10.4428492"><ele>184.0</ele><time>2026-03-29T12:38:00.642Z</time></trkpt><trkpt lat="45.5160652" lon="10.4429961"><ele>183.66666666666669</ele><time>2026-03-29T12:38:01.642Z</time></trkpt><trkpt lat="45.5160445" lon="10.4431454"><ele>183.33333333333334</ele><time>2026-03-29T12:38:02.646Z</time></trkpt><trkpt lat="45.5160176" lon="10.4432812"><ele>183.0</ele><time>2026-03-29T12:38:03.637Z</time></trkpt><trkpt lat="45.5159908" lon="10.4434037"><ele>182.66666666666666</ele><time>2026-03-29T12:38:04.639Z</time></trkpt><trkpt lat="45.5159545" lon="10.4434954"><ele>182.33333333333331</ele><time>2026-03-29T12:38:05.653Z</time></trkpt><trkpt lat="45.5159166" lon="10.4435674"><ele>182.0</ele><time>2026-03-29T12:38:06.648Z</time></trkpt><trkpt lat="45.5158793" lon="10.4436568"><ele>182.0</ele><time>2026-03-29T12:38:07.643Z</time></trkpt><trkpt lat="45.5158481" lon="10.443754"><ele>182.0</ele><time>2026-03-29T12:38:08.633Z</time></trkpt><trkpt lat="45.515812" lon="10.4438792"><ele>182.0</ele><time>2026-03-29T12:38:09.651Z</time></trkpt><trkpt lat="45.5157642" lon="10.4440141"><ele>182.0</ele><time>2026-03-29T12:38:10.657Z</time></trkpt><trkpt lat="45.5157147" lon="10.4441744"><ele>182.0</ele><time>2026-03-29T12:38:11.655Z</time></trkpt><trkpt lat="45.5156734" lon="10.4443481"><ele>182.0</ele><time>2026-03-29T12:38:12.659Z</time></trkpt><trkpt lat="45.515643" lon="10.4445097"><ele>182.0</ele><time>2026-03-29T12:38:13.655Z</time></trkpt><trkpt lat="45.515618" lon="10.4446569"><ele>182.0</ele><time>2026-03-29T12:38:14.657Z</time></trkpt><trkpt lat="45.5155947" lon="10.4448167"><ele>182.0</ele><time>2026-03-29T12:38:15.656Z</time></trkpt><trkpt lat="45.5155648" lon="10.4449725"><ele>182.0</ele><time>2026-03-29T12:38:16.654Z</time></trkpt><trkpt lat="45.5155241" lon="10.4451275"><ele>182.0</ele><time>2026-03-29T12:38:17.653Z</time></trkpt><trkpt lat="45.5154931" lon="10.4452612"><ele>182.0</ele><time>2026-03-29T12:38:18.659Z</time></trkpt><trkpt lat="45.5154683" lon="10.4453692"><ele>182.0</ele><time>2026-03-29T12:38:19.648Z</time></trkpt><trkpt lat="45.5154397" lon="10.4454544"><ele>182.0</ele><time>2026-03-29T12:38:20.65Z</time></trkpt><trkpt lat="45.5154155" lon="10.4455546"><ele>182.0</ele><time>2026-03-29T12:38:21.645Z</time></trkpt><trkpt lat="45.5154022" lon="10.4456478"><ele>182.0</ele><time>2026-03-29T12:38:22.652Z</time></trkpt><trkpt lat="45.5153867" lon="10.4457405"><ele>182.0</ele><time>2026-03-29T12:38:23.652Z</time></trkpt><trkpt lat="45.5153565" lon="10.4458556"><ele>182.0</ele><time>2026-03-29T12:38:24.656Z</time></trkpt><trkpt lat="45.5153157" lon="10.445995"><ele>182.0</ele><time>2026-03-29T12:38:25.663Z</time></trkpt><trkpt lat="45.5152646" lon="10.4461533"><ele>182.0</ele><time>2026-03-29T12:38:26.651Z</time></trkpt><trkpt lat="45.515196" lon="10.4463384"><ele>181.66666666666666</ele><time>2026-03-29T12:38:27.647Z</time></trkpt><trkpt lat="45.515123" lon="10.446533"><ele>181.33333333333334</ele><time>2026-03-29T12:38:28.651Z</time></trkpt><trkpt lat="45.5150443" lon="10.4467457"><ele>181.0</ele><time>2026-03-29T12:38:29.677Z</time></trkpt><trkpt lat="45.5149743" lon="10.4469644"><ele>181.25</ele><time>2026-03-29T12:38:30.66Z</time></trkpt><trkpt lat="45.5149083" lon="10.4471652"><ele>181.5</ele><time>2026-03-29T12:38:31.66Z</time></trkpt><trkpt lat="45.5148512" lon="10.4473541"><ele>181.75</ele><time>2026-03-29T12:38:32.656Z</time></trkpt><trkpt lat="45.5147997" lon="10.4475393"><ele>182.0</ele><time>2026-03-29T12:38:33.661Z</time></trkpt><trkpt lat="45.5147519" lon="10.4477273"><ele>182.0</ele><time>2026-03-29T12:38:34.658Z</time></trkpt><trkpt lat="45.5147008" lon="10.447925"><ele>182.0</ele><time>2026-03-29T12:38:35.652Z</time></trkpt><trkpt lat="45.514652" lon="10.4481397"><ele>182.0</ele><time>2026-03-29T12:38:36.652Z</time></trkpt><trkpt lat="45.5146157" lon="10.4483431"><ele>182.25</ele><time>2026-03-29T12:38:37.656Z</time></trkpt><trkpt lat="45.514568" lon="10.4485439"><ele>182.5</ele><time>2026-03-29T12:38:38.65Z</time></trkpt><trkpt lat="45.5145205" lon="10.4487408"><ele>182.75</ele><time>2026-03-29T12:38:39.649Z</time></trkpt><trkpt lat="45.5144706" lon="10.448931"><ele>183.0</ele><time>2026-03-29T12:38:40.657Z</time></trkpt><trkpt lat="45.5144188" lon="10.4491328"><ele>183.0</ele><time>2026-03-29T12:38:41.653Z</time></trkpt><trkpt lat="45.5143696" lon="10.4493536"><ele>183.0</ele><time>2026-03-29T12:38:42.67Z</time></trkpt><trkpt lat="45.5143282" lon="10.4495555"><ele>183.0</ele><time>2026-03-29T12:38:43.653Z</time></trkpt><trkpt lat="45.5142833" lon="10.4497728"><ele>183.66666666666666</ele><time>2026-03-29T12:38:44.653Z</time></trkpt><trkpt lat="45.5142304" lon="10.4499951"><ele>184.33333333333331</ele><time>2026-03-29T12:38:45.652Z</time></trkpt><trkpt lat="45.5141788" lon="10.4502084"><ele>185.0</ele><time>2026-03-29T12:38:46.657Z</time></trkpt><trkpt lat="45.5141302" lon="10.4504372"><ele>185.0</ele><time>2026-03-29T12:38:47.653Z</time></trkpt><trkpt lat="45.5140847" lon="10.4506742"><ele>185.0</ele><time>2026-03-29T12:38:48.661Z</time></trkpt><trkpt lat="45.51404" lon="10.4508987"><ele>185.0</ele><time>2026-03-29T12:38:49.653Z</time></trkpt><trkpt lat="45.5139999" lon="10.4511059"><ele>185.33333333333331</ele><time>2026-03-29T12:38:50.656Z</time></trkpt><trkpt lat="45.5139662" lon="10.4513135"><ele>185.66666666666666</ele><time>2026-03-29T12:38:51.66Z</time></trkpt><trkpt lat="45.5139353" lon="10.4515214"><ele>186.0</ele><time>2026-03-29T12:38:52.656Z</time></trkpt><trkpt lat="45.5138973" lon="10.4517381"><ele>186.0</ele><time>2026-03-29T12:38:53.657Z</time></trkpt><trkpt lat="45.5138745" lon="10.4519689"><ele>186.0</ele><time>2026-03-29T12:38:54.656Z</time></trkpt><trkpt lat="45.5138387" lon="10.4521886"><ele>186.0</ele><time>2026-03-29T12:38:55.656Z</time></trkpt><trkpt lat="45.5137899" lon="10.4524048"><ele>186.0</ele><time>2026-03-29T12:38:56.653Z</time></trkpt><trkpt lat="45.5137406" lon="10.452626"><ele>186.0</ele><time>2026-03-29T12:38:57.655Z</time></trkpt><trkpt lat="45.5137044" lon="10.4528638"><ele>186.0</ele><time>2026-03-29T12:38:58.657Z</time></trkpt><trkpt lat="45.5136639" lon="10.4531031"><ele>185.33333333333334</ele><time>2026-03-29T12:38:59.658Z</time></trkpt><trkpt lat="45.5136283" lon="10.4533296"><ele>184.66666666666669</ele><time>2026-03-29T12:39:00.675Z</time></trkpt><trkpt lat="45.5135898" lon="10.4535612"><ele>184.0</ele><time>2026-03-29T12:39:01.66Z</time></trkpt><trkpt lat="45.5135638" lon="10.4537797"><ele>184.0</ele><time>2026-03-29T12:39:02.657Z</time></trkpt><trkpt lat="45.5135311" lon="10.453976"><ele>184.0</ele><time>2026-03-29T12:39:03.654Z</time></trkpt><trkpt lat="45.5134985" lon="10.4541725"><ele>184.0</ele><time>2026-03-29T12:39:04.648Z</time></trkpt><trkpt lat="45.5134699" lon="10.4543456"><ele>184.0</ele><time>2026-03-29T12:39:05.658Z</time></trkpt><trkpt lat="45.51346" lon="10.4544663"><ele>184.0</ele><time>2026-03-29T12:39:06.653Z</time></trkpt><trkpt lat="45.513448" lon="10.454612"><ele>184.0</ele><time>2026-03-29T12:39:07.651Z</time></trkpt><trkpt lat="45.5134369" lon="10.4547725"><ele>184.0</ele><time>2026-03-29T12:39:08.645Z</time></trkpt><trkpt lat="45.5134177" lon="10.4548848"><ele>184.0</ele><time>2026-03-29T12:39:09.639Z</time></trkpt><trkpt lat="45.513375" lon="10.4549866"><ele>184.0</ele><time>2026-03-29T12:39:10.642Z</time></trkpt><trkpt lat="45.5133394" lon="10.4550652"><ele>184.0</ele><time>2026-03-29T12:39:11.65Z</time></trkpt><trkpt lat="45.5132813" lon="10.4551387"><ele>184.0</ele><time>2026-03-29T12:39:12.642Z</time></trkpt><trkpt lat="45.5132224" lon="10.4551864"><ele>184.0</ele><time>2026-03-29T12:39:13.632Z</time></trkpt><trkpt lat="45.5131183" lon="10.4552192"><ele>184.0</ele><time>2026-03-29T12:39:14.652Z</time></trkpt><trkpt lat="45.5130132" lon="10.4552222"><ele>184.0</ele><time>2026-03-29T12:39:15.636Z</time></trkpt><trkpt lat="45.5129025" lon="10.4552069"><ele>184.0</ele><time>2026-03-29T12:39:16.645Z</time></trkpt><trkpt lat="45.5128063" lon="10.4551939"><ele>184.0</ele><time>2026-03-29T12:39:17.648Z</time></trkpt><trkpt lat="45.5127134" lon="10.4551721"><ele>184.0</ele><time>2026-03-29T12:39:18.652Z</time></trkpt><trkpt lat="45.5126245" lon="10.4551751"><ele>184.0</ele><time>2026-03-29T12:39:19.66Z</time></trkpt><trkpt lat="45.5125387" lon="10.4552049"><ele>184.0</ele><time>2026-03-29T12:39:20.652Z</time></trkpt><trkpt lat="45.5124555" lon="10.4552452"><ele>184.0</ele><time>2026-03-29T12:39:21.658Z</time></trkpt><trkpt lat="45.5123854" lon="10.4552773"><ele>184.0</ele><time>2026-03-29T12:39:22.652Z</time></trkpt><trkpt lat="45.5123099" lon="10.4553267"><ele>184.0</ele><time>2026-03-29T12:39:23.648Z</time></trkpt><trkpt lat="45.5122332" lon="10.4554019"><ele>184.0</ele><time>2026-03-29T12:39:24.657Z</time></trkpt><trkpt lat="45.51215" lon="10.455485"><ele>184.0</ele><time>2026-03-29T12:39:25.65Z</time></trkpt><trkpt lat="45.512061" lon="10.4555739"><ele>184.0</ele><time>2026-03-29T12:39:26.647Z</time></trkpt><trkpt lat="45.5119533" lon="10.4556717"><ele>184.0</ele><time>2026-03-29T12:39:27.645Z</time></trkpt><trkpt lat="45.5118468" lon="10.4557943"><ele>184.25</ele><time>2026-03-29T12:39:28.65Z</time></trkpt><trkpt lat="45.5117446" lon="10.4559218"><ele>184.5</ele><time>2026-03-29T12:39:29.654Z</time></trkpt><trkpt lat="45.5116446" lon="10.4560442"><ele>184.75</ele><time>2026-03-29T12:39:30.649Z</time></trkpt><trkpt lat="45.5115503" lon="10.4561729"><ele>185.0</ele><time>2026-03-29T12:39:31.696Z</time></trkpt><trkpt lat="45.5114581" lon="10.4562947"><ele>185.0</ele><time>2026-03-29T12:39:32.652Z</time></trkpt><trkpt lat="45.5113739" lon="10.4564181"><ele>185.0</ele><time>2026-03-29T12:39:33.655Z</time></trkpt><trkpt lat="45.5112935" lon="10.4565494"><ele>185.0</ele><time>2026-03-29T12:39:34.652Z</time></trkpt><trkpt lat="45.5112035" lon="10.4566744"><ele>185.0</ele><time>2026-03-29T12:39:35.659Z</time></trkpt><trkpt lat="45.5111138" lon="10.456788"><ele>185.0</ele><time>2026-03-29T12:39:36.654Z</time></trkpt><trkpt lat="45.5110279" lon="10.4568974"><ele>185.0</ele><time>2026-03-29T12:39:37.649Z</time></trkpt><trkpt lat="45.5109442" lon="10.4570113"><ele>185.0</ele><time>2026-03-29T12:39:38.655Z</time></trkpt><trkpt lat="45.510873" lon="10.4571079"><ele>185.0</ele><time>2026-03-29T12:39:39.641Z</time></trkpt><trkpt lat="45.5108065" lon="10.4571937"><ele>185.0</ele><time>2026-03-29T12:39:40.647Z</time></trkpt><trkpt lat="45.5107457" lon="10.4572624"><ele>185.0</ele><time>2026-03-29T12:39:41.649Z</time></trkpt><trkpt lat="45.510684" lon="10.4573422"><ele>185.0</ele><time>2026-03-29T12:39:42.658Z</time></trkpt><trkpt lat="45.510617" lon="10.4574372"><ele>185.0</ele><time>2026-03-29T12:39:43.643Z</time></trkpt><trkpt lat="45.5105218" lon="10.4575599"><ele>185.0</ele><time>2026-03-29T12:39:44.655Z</time></trkpt><trkpt lat="45.5104183" lon="10.4576888"><ele>185.0</ele><time>2026-03-29T12:39:45.646Z</time></trkpt><trkpt lat="45.5103192" lon="10.4578457"><ele>184.66666666666666</ele><time>2026-03-29T12:39:46.651Z</time></trkpt><trkpt lat="45.5101947" lon="10.4580138"><ele>184.33333333333334</ele><time>2026-03-29T12:39:47.648Z</time></trkpt><trkpt lat="45.5100755" lon="10.4581994"><ele>184.0</ele><time>2026-03-29T12:39:48.652Z</time></trkpt><trkpt lat="45.509972" lon="10.4583789"><ele>184.0</ele><time>2026-03-29T12:39:49.658Z</time></trkpt><trkpt lat="45.5098684" lon="10.458571"><ele>184.0</ele><time>2026-03-29T12:39:50.657Z</time></trkpt><trkpt lat="45.5097622" lon="10.4587532"><ele>184.0</ele><time>2026-03-29T12:39:51.657Z</time></trkpt><trkpt lat="45.5096328" lon="10.4589082"><ele>183.33333333333334</ele><time>2026-03-29T12:39:52.655Z</time></trkpt><trkpt lat="45.5095253" lon="10.4590742"><ele>182.66666666666666</ele><time>2026-03-29T12:39:53.653Z</time></trkpt><trkpt lat="45.5094367" lon="10.459257"><ele>182.0</ele><time>2026-03-29T12:39:54.649Z</time></trkpt><trkpt lat="45.5093344" lon="10.4594437"><ele>182.66666666666666</ele><time>2026-03-29T12:39:55.654Z</time></trkpt><trkpt lat="45.5092352" lon="10.4596296"><ele>183.33333333333334</ele><time>2026-03-29T12:39:56.652Z</time></trkpt><trkpt lat="45.5091435" lon="10.4598173"><ele>184.0</ele><time>2026-03-29T12:39:57.656Z</time></trkpt><trkpt lat="45.5090542" lon="10.4599833"><ele>184.0</ele><time>2026-03-29T12:39:58.654Z</time></trkpt><trkpt lat="45.5089783" lon="10.460164"><ele>184.0</ele><time>2026-03-29T12:39:59.653Z</time></trkpt><trkpt lat="45.5089108" lon="10.4603124"><ele>184.0</ele><time>2026-03-29T12:40:00.652Z</time></trkpt><trkpt lat="45.5088361" lon="10.4604698"><ele>184.0</ele><time>2026-03-29T12:40:01.671Z</time></trkpt><trkpt lat="45.5087496" lon="10.460632"><ele>184.0</ele><time>2026-03-29T12:40:02.648Z</time></trkpt><trkpt lat="45.5086578" lon="10.4607868"><ele>184.0</ele><time>2026-03-29T12:40:03.649Z</time></trkpt><trkpt lat="45.5085767" lon="10.4609471"><ele>184.0</ele><time>2026-03-29T12:40:04.647Z</time></trkpt><trkpt lat="45.50848" lon="10.4610887"><ele>184.0</ele><time>2026-03-29T12:40:05.644Z</time></trkpt><trkpt lat="45.5084038" lon="10.4611847"><ele>184.0</ele><time>2026-03-29T12:40:06.643Z</time></trkpt><trkpt lat="45.5083238" lon="10.4612747"><ele>184.0</ele><time>2026-03-29T12:40:07.643Z</time></trkpt><trkpt lat="45.5082614" lon="10.461374"><ele>184.0</ele><time>2026-03-29T12:40:08.648Z</time></trkpt><trkpt lat="45.5082191" lon="10.4614926"><ele>184.0</ele><time>2026-03-29T12:40:09.643Z</time></trkpt><trkpt lat="45.5081772" lon="10.4616379"><ele>184.0</ele><time>2026-03-29T12:40:10.633Z</time></trkpt><trkpt lat="45.5081567" lon="10.4617919"><ele>184.5</ele><time>2026-03-29T12:40:11.636Z</time></trkpt><trkpt lat="45.5081557" lon="10.4619564"><ele>185.0</ele><time>2026-03-29T12:40:12.647Z</time></trkpt><trkpt lat="45.5081758" lon="10.462114"><ele>185.5</ele><time>2026-03-29T12:40:13.645Z</time></trkpt><trkpt lat="45.5082017" lon="10.4622869"><ele>186.0</ele><time>2026-03-29T12:40:14.646Z</time></trkpt><trkpt lat="45.508228" lon="10.4624582"><ele>186.4</ele><time>2026-03-29T12:40:15.633Z</time></trkpt><trkpt lat="45.5082539" lon="10.4626205"><ele>186.8</ele><time>2026-03-29T12:40:16.63Z</time></trkpt><trkpt lat="45.508278" lon="10.4627663"><ele>187.20000000000002</ele><time>2026-03-29T12:40:17.631Z</time></trkpt><trkpt lat="45.5082908" lon="10.4629117"><ele>187.60000000000002</ele><time>2026-03-29T12:40:18.634Z</time></trkpt><trkpt lat="45.5082987" lon="10.4630442"><ele>188.0</ele><time>2026-03-29T12:40:19.639Z</time></trkpt><trkpt lat="45.5083118" lon="10.4631603"><ele>188.0</ele><time>2026-03-29T12:40:20.658Z</time></trkpt><trkpt lat="45.5083249" lon="10.4632634"><ele>188.0</ele><time>2026-03-29T12:40:21.649Z</time></trkpt><trkpt lat="45.5083348" lon="10.4633707"><ele>188.0</ele><time>2026-03-29T12:40:22.648Z</time></trkpt><trkpt lat="45.5083518" lon="10.4635122"><ele>188.0</ele><time>2026-03-29T12:40:24.647Z</time></trkpt><trkpt lat="45.5082854" lon="10.4635582"><ele>188.0</ele><time>2026-03-29T12:40:27.65Z</time></trkpt><trkpt lat="45.5082067" lon="10.4635527"><ele>188.0</ele><time>2026-03-29T12:40:29.652Z</time></trkpt><trkpt lat="45.5081748" lon="10.4634663"><ele>188.0</ele><time>2026-03-29T12:40:31.655Z</time></trkpt><trkpt lat="45.5081598" lon="10.4633051"><ele>188.0</ele><time>2026-03-29T12:40:33.635Z</time></trkpt><trkpt lat="45.508168" lon="10.4631659"><ele>188.0</ele><time>2026-03-29T12:40:35.654Z</time></trkpt><trkpt lat="45.5081527" lon="10.4630429"><ele>188.0</ele><time>2026-03-29T12:40:38.652Z</time></trkpt><trkpt lat="45.5081002" lon="10.4629336"><ele>188.0</ele><time>2026-03-29T12:40:40.652Z</time></trkpt><trkpt lat="45.5079998" lon="10.4628786"><ele>188.0</ele><time>2026-03-29T12:40:42.658Z</time></trkpt><trkpt lat="45.5079409" lon="10.4629305"><ele>188.0</ele><time>2026-03-29T12:40:44.652Z</time></trkpt><trkpt lat="45.507889" lon="10.4630043"><ele>182.0</ele><time>2026-03-29T12:40:46.647Z</time></trkpt></trkseg></trk></gpx>